sensor_id;sensor_type;location;lat;lon;timestamp;P1;durP1;ratioP1;P2;durP2;ratioP2
7432;SDS011;32233;49.500;7.764;2023-02-01T00:00:24;6.53;;;5.30;;
7432;SDS011;32233;49.500;7.764;2023-02-01T00:02:50;8.57;;;5.23;;
7432;SDS011;32233;49.500;7.764;2023-02-01T00:05:17;7.70;;;5.20;;
7432;SDS011;32233;49.500;7.764;2023-02-01T00:07:46;6.63;;;4.83;;
7432;SDS011;32233;49.500;7.764;2023-02-01T00:10:14;7.53;;;4.67;;
7432;SDS011;32233;49.500;7.764;2023-02-01T00:12:41;6.93;;;5.37;;
7432;SDS011;32233;49.500;7.764;2023-02-01T00:15:07;8.83;;;4.60;;
7432;SDS011;32233;49.500;7.764;2023-02-01T00:17:34;6.50;;;4.63;;
7432;SDS011;32233;49.500;7.764;2023-02-01T00:20:01;5.90;;;4.70;;
7432;SDS011;32233;49.500;7.764;2023-02-01T00:22:28;5.30;;;4.80;;
7432;SDS011;32233;49.500;7.764;2023-02-01T00:24:54;6.23;;;4.50;;
7432;SDS011;32233;49.500;7.764;2023-02-01T00:27:21;5.53;;;4.23;;
7432;SDS011;32233;49.500;7.764;2023-02-01T00:29:47;7.80;;;4.77;;
7432;SDS011;32233;49.500;7.764;2023-02-01T00:32:14;5.00;;;4.57;;
7432;SDS011;32233;49.500;7.764;2023-02-01T00:34:41;5.40;;;4.73;;
7432;SDS011;32233;49.500;7.764;2023-02-01T00:37:07;8.70;;;4.70;;
7432;SDS011;32233;49.500;7.764;2023-02-01T00:39:34;7.20;;;4.50;;
7432;SDS011;32233;49.500;7.764;2023-02-01T00:42:00;8.33;;;4.73;;
7432;SDS011;32233;49.500;7.764;2023-02-01T00:44:28;5.83;;;4.23;;
7432;SDS011;32233;49.500;7.764;2023-02-01T00:46:59;7.23;;;4.47;;
7432;SDS011;32233;49.500;7.764;2023-02-01T00:49:26;7.10;;;4.47;;
7432;SDS011;32233;49.500;7.764;2023-02-01T00:51:54;6.07;;;4.50;;
7432;SDS011;32233;49.500;7.764;2023-02-01T00:54:20;7.50;;;4.93;;
7432;SDS011;32233;49.500;7.764;2023-02-01T00:56:47;7.83;;;4.70;;
7432;SDS011;32233;49.500;7.764;2023-02-01T00:59:13;7.30;;;4.73;;
7432;SDS011;32233;49.500;7.764;2023-02-01T01:01:40;9.40;;;4.67;;
7432;SDS011;32233;49.500;7.764;2023-02-01T01:04:06;6.87;;;4.83;;
7432;SDS011;32233;49.500;7.764;2023-02-01T01:06:33;9.37;;;5.10;;
7432;SDS011;32233;49.500;7.764;2023-02-01T01:09:03;7.33;;;4.60;;
7432;SDS011;32233;49.500;7.764;2023-02-01T01:11:32;6.73;;;4.40;;
7432;SDS011;32233;49.500;7.764;2023-02-01T01:14:00;8.27;;;4.63;;
7432;SDS011;32233;49.500;7.764;2023-02-01T01:16:28;8.80;;;4.73;;
7432;SDS011;32233;49.500;7.764;2023-02-01T01:18:56;6.83;;;5.07;;
7432;SDS011;32233;49.500;7.764;2023-02-01T01:21:24;6.33;;;5.00;;
7432;SDS011;32233;49.500;7.764;2023-02-01T01:23:51;9.50;;;5.10;;
7432;SDS011;32233;49.500;7.764;2023-02-01T01:26:19;6.53;;;4.73;;
7432;SDS011;32233;49.500;7.764;2023-02-01T01:28:51;7.10;;;5.17;;
7432;SDS011;32233;49.500;7.764;2023-02-01T01:31:18;7.83;;;5.00;;
7432;SDS011;32233;49.500;7.764;2023-02-01T01:33:53;11.27;;;5.27;;
7432;SDS011;32233;49.500;7.764;2023-02-01T01:36:22;6.87;;;5.27;;
7432;SDS011;32233;49.500;7.764;2023-02-01T01:38:49;7.67;;;5.00;;
7432;SDS011;32233;49.500;7.764;2023-02-01T01:41:18;8.63;;;5.57;;
7432;SDS011;32233;49.500;7.764;2023-02-01T01:46:19;8.13;;;5.73;;
7432;SDS011;32233;49.500;7.764;2023-02-01T01:48:55;8.27;;;6.13;;
7432;SDS011;32233;49.500;7.764;2023-02-01T01:51:28;7.90;;;5.63;;
7432;SDS011;32233;49.500;7.764;2023-02-01T01:54:05;10.13;;;5.60;;
7432;SDS011;32233;49.500;7.764;2023-02-01T01:56:38;9.97;;;6.60;;
7432;SDS011;32233;49.500;7.764;2023-02-01T01:59:05;9.23;;;6.57;;
7432;SDS011;32233;49.500;7.764;2023-02-01T02:01:34;13.80;;;7.50;;
7432;SDS011;32233;49.500;7.764;2023-02-01T02:04:01;9.57;;;6.77;;
7432;SDS011;32233;49.500;7.764;2023-02-01T02:09:11;13.07;;;6.97;;
7432;SDS011;32233;49.500;7.764;2023-02-01T02:11:38;11.33;;;6.50;;
7432;SDS011;32233;49.500;7.764;2023-02-01T02:14:04;10.80;;;6.43;;
7432;SDS011;32233;49.500;7.764;2023-02-01T02:16:39;8.87;;;5.80;;
7432;SDS011;32233;49.500;7.764;2023-02-01T02:19:31;9.50;;;5.30;;
7432;SDS011;32233;49.500;7.764;2023-02-01T02:32:19;8.23;;;5.27;;
7432;SDS011;32233;49.500;7.764;2023-02-01T02:35:09;10.27;;;6.30;;
7432;SDS011;32233;49.500;7.764;2023-02-01T02:37:41;11.77;;;6.40;;
7432;SDS011;32233;49.500;7.764;2023-02-01T02:40:19;11.53;;;7.43;;
7432;SDS011;32233;49.500;7.764;2023-02-01T02:42:55;8.93;;;6.60;;
7432;SDS011;32233;49.500;7.764;2023-02-01T02:46:04;11.67;;;7.20;;
7432;SDS011;32233;49.500;7.764;2023-02-01T02:49:02;10.13;;;7.07;;
7432;SDS011;32233;49.500;7.764;2023-02-01T02:51:43;14.87;;;6.83;;
7432;SDS011;32233;49.500;7.764;2023-02-01T02:54:35;12.23;;;6.73;;
7432;SDS011;32233;49.500;7.764;2023-02-01T02:57:25;13.07;;;6.73;;
7432;SDS011;32233;49.500;7.764;2023-02-01T03:00:22;9.93;;;6.73;;
7432;SDS011;32233;49.500;7.764;2023-02-01T03:03:13;11.83;;;7.30;;
7432;SDS011;32233;49.500;7.764;2023-02-01T03:05:58;10.27;;;6.07;;
7432;SDS011;32233;49.500;7.764;2023-02-01T03:08:26;13.63;;;6.20;;
7432;SDS011;32233;49.500;7.764;2023-02-01T03:11:07;12.57;;;6.50;;
7432;SDS011;32233;49.500;7.764;2023-02-01T03:13:38;10.97;;;6.40;;
7432;SDS011;32233;49.500;7.764;2023-02-01T03:16:26;11.57;;;6.80;;
7432;SDS011;32233;49.500;7.764;2023-02-01T03:18:58;10.27;;;5.80;;
7432;SDS011;32233;49.500;7.764;2023-02-01T03:21:28;8.43;;;5.93;;
7432;SDS011;32233;49.500;7.764;2023-02-01T03:24:00;9.23;;;6.27;;
7432;SDS011;32233;49.500;7.764;2023-02-01T03:26:31;13.07;;;6.57;;
7432;SDS011;32233;49.500;7.764;2023-02-01T03:29:08;12.70;;;5.83;;
7432;SDS011;32233;49.500;7.764;2023-02-01T03:31:41;11.27;;;6.60;;
7432;SDS011;32233;49.500;7.764;2023-02-01T03:34:08;11.60;;;6.10;;
7432;SDS011;32233;49.500;7.764;2023-02-01T03:36:40;10.27;;;6.13;;
7432;SDS011;32233;49.500;7.764;2023-02-01T03:39:15;12.87;;;6.40;;
7432;SDS011;32233;49.500;7.764;2023-02-01T03:44:26;11.33;;;7.30;;
7432;SDS011;32233;49.500;7.764;2023-02-01T03:47:02;12.20;;;7.10;;
7432;SDS011;32233;49.500;7.764;2023-02-01T03:49:38;10.53;;;7.03;;
7432;SDS011;32233;49.500;7.764;2023-02-01T03:52:16;9.07;;;5.87;;
7432;SDS011;32233;49.500;7.764;2023-02-01T03:54:47;10.93;;;5.47;;
7432;SDS011;32233;49.500;7.764;2023-02-01T03:57:18;7.80;;;4.73;;
7432;SDS011;32233;49.500;7.764;2023-02-01T03:59:52;7.50;;;5.17;;
7432;SDS011;32233;49.500;7.764;2023-02-01T04:02:20;7.47;;;4.87;;
7432;SDS011;32233;49.500;7.764;2023-02-01T04:04:46;9.10;;;4.80;;
7432;SDS011;32233;49.500;7.764;2023-02-01T04:07:15;8.27;;;5.47;;
7432;SDS011;32233;49.500;7.764;2023-02-01T04:09:43;10.63;;;5.47;;
7432;SDS011;32233;49.500;7.764;2023-02-01T04:12:09;12.27;;;5.57;;
7432;SDS011;32233;49.500;7.764;2023-02-01T04:14:36;10.20;;;5.97;;
7432;SDS011;32233;49.500;7.764;2023-02-01T04:17:02;11.60;;;6.33;;
7432;SDS011;32233;49.500;7.764;2023-02-01T04:19:29;11.87;;;6.63;;
7432;SDS011;32233;49.500;7.764;2023-02-01T04:21:55;10.33;;;6.23;;
7432;SDS011;32233;49.500;7.764;2023-02-01T04:24:22;12.53;;;6.00;;
7432;SDS011;32233;49.500;7.764;2023-02-01T04:26:48;10.53;;;6.03;;
7432;SDS011;32233;49.500;7.764;2023-02-01T04:29:15;13.77;;;6.37;;
7432;SDS011;32233;49.500;7.764;2023-02-01T04:31:41;8.50;;;5.80;;
7432;SDS011;32233;49.500;7.764;2023-02-01T04:34:08;11.37;;;6.00;;
7432;SDS011;32233;49.500;7.764;2023-02-01T04:36:34;10.77;;;5.27;;
7432;SDS011;32233;49.500;7.764;2023-02-01T04:39:01;8.33;;;5.27;;
7432;SDS011;32233;49.500;7.764;2023-02-01T04:41:27;8.43;;;5.13;;
7432;SDS011;32233;49.500;7.764;2023-02-01T04:43:55;11.80;;;5.53;;
7432;SDS011;32233;49.500;7.764;2023-02-01T04:46:21;7.70;;;5.03;;
7432;SDS011;32233;49.500;7.764;2023-02-01T04:48:48;9.13;;;5.37;;
7432;SDS011;32233;49.500;7.764;2023-02-01T04:51:14;10.97;;;6.00;;
7432;SDS011;32233;49.500;7.764;2023-02-01T04:53:41;11.10;;;6.47;;
7432;SDS011;32233;49.500;7.764;2023-02-01T04:56:08;9.80;;;6.47;;
7432;SDS011;32233;49.500;7.764;2023-02-01T04:58:34;10.73;;;6.03;;
7432;SDS011;32233;49.500;7.764;2023-02-01T05:01:04;10.77;;;6.53;;
7432;SDS011;32233;49.500;7.764;2023-02-01T05:03:32;7.70;;;5.77;;
7432;SDS011;32233;49.500;7.764;2023-02-01T05:05:59;11.40;;;6.27;;
7432;SDS011;32233;49.500;7.764;2023-02-01T05:08:26;10.33;;;5.87;;
7432;SDS011;32233;49.500;7.764;2023-02-01T05:10:54;10.47;;;6.13;;
7432;SDS011;32233;49.500;7.764;2023-02-01T05:13:21;10.13;;;5.80;;
7432;SDS011;32233;49.500;7.764;2023-02-01T05:16:06;11.27;;;5.63;;
7432;SDS011;32233;49.500;7.764;2023-02-01T05:18:33;7.60;;;5.07;;
7432;SDS011;32233;49.500;7.764;2023-02-01T05:20:59;6.23;;;4.30;;
7432;SDS011;32233;49.500;7.764;2023-02-01T05:23:25;7.90;;;4.80;;
7432;SDS011;32233;49.500;7.764;2023-02-01T05:25:52;8.10;;;4.70;;
7432;SDS011;32233;49.500;7.764;2023-02-01T05:28:23;10.60;;;4.23;;
7432;SDS011;32233;49.500;7.764;2023-02-01T05:30:50;6.63;;;4.00;;
7432;SDS011;32233;49.500;7.764;2023-02-01T05:33:16;7.53;;;4.67;;
7432;SDS011;32233;49.500;7.764;2023-02-01T05:35:43;7.77;;;5.10;;
7432;SDS011;32233;49.500;7.764;2023-02-01T05:38:09;8.60;;;5.50;;
7432;SDS011;32233;49.500;7.764;2023-02-01T05:40:36;8.33;;;5.67;;
7432;SDS011;32233;49.500;7.764;2023-02-01T05:43:02;14.23;;;6.27;;
7432;SDS011;32233;49.500;7.764;2023-02-01T05:45:29;12.60;;;7.03;;
7432;SDS011;32233;49.500;7.764;2023-02-01T05:47:55;15.30;;;8.00;;
7432;SDS011;32233;49.500;7.764;2023-02-01T05:50:22;13.43;;;7.97;;
7432;SDS011;32233;49.500;7.764;2023-02-01T05:52:55;20.70;;;8.80;;
7432;SDS011;32233;49.500;7.764;2023-02-01T05:55:21;16.37;;;8.37;;
7432;SDS011;32233;49.500;7.764;2023-02-01T05:57:48;10.80;;;7.70;;
7432;SDS011;32233;49.500;7.764;2023-02-01T06:00:14;12.47;;;7.30;;
7432;SDS011;32233;49.500;7.764;2023-02-01T06:02:41;13.63;;;7.17;;
7432;SDS011;32233;49.500;7.764;2023-02-01T06:05:08;14.43;;;7.77;;
7432;SDS011;32233;49.500;7.764;2023-02-01T06:07:35;11.93;;;6.93;;
7432;SDS011;32233;49.500;7.764;2023-02-01T06:10:01;14.20;;;7.10;;
7432;SDS011;32233;49.500;7.764;2023-02-01T06:12:28;12.20;;;6.60;;
7432;SDS011;32233;49.500;7.764;2023-02-01T06:14:54;16.10;;;6.90;;
7432;SDS011;32233;49.500;7.764;2023-02-01T06:17:21;14.07;;;6.80;;
7432;SDS011;32233;49.500;7.764;2023-02-01T06:19:47;11.13;;;6.30;;
7432;SDS011;32233;49.500;7.764;2023-02-01T06:22:14;12.07;;;6.47;;
7432;SDS011;32233;49.500;7.764;2023-02-01T06:24:41;10.60;;;6.20;;
7432;SDS011;32233;49.500;7.764;2023-02-01T06:27:07;15.07;;;6.27;;
7432;SDS011;32233;49.500;7.764;2023-02-01T06:29:35;9.47;;;5.70;;
7432;SDS011;32233;49.500;7.764;2023-02-01T06:32:02;10.90;;;5.77;;
7432;SDS011;32233;49.500;7.764;2023-02-01T06:34:29;12.60;;;7.93;;
7432;SDS011;32233;49.500;7.764;2023-02-01T06:36:55;12.83;;;6.07;;
7432;SDS011;32233;49.500;7.764;2023-02-01T06:39:22;11.20;;;6.10;;
7432;SDS011;32233;49.500;7.764;2023-02-01T06:41:48;13.63;;;7.73;;
7432;SDS011;32233;49.500;7.764;2023-02-01T06:44:16;12.10;;;7.27;;
7432;SDS011;32233;49.500;7.764;2023-02-01T06:46:43;12.33;;;5.97;;
7432;SDS011;32233;49.500;7.764;2023-02-01T06:49:09;12.50;;;6.47;;
7432;SDS011;32233;49.500;7.764;2023-02-01T06:51:36;17.50;;;7.50;;
7432;SDS011;32233;49.500;7.764;2023-02-01T06:54:02;15.67;;;6.50;;
7432;SDS011;32233;49.500;7.764;2023-02-01T06:56:29;13.83;;;6.30;;
7432;SDS011;32233;49.500;7.764;2023-02-01T06:58:57;16.07;;;7.23;;
7432;SDS011;32233;49.500;7.764;2023-02-01T07:01:23;17.20;;;7.57;;
7432;SDS011;32233;49.500;7.764;2023-02-01T07:03:50;16.63;;;7.77;;
7432;SDS011;32233;49.500;7.764;2023-02-01T07:06:17;18.87;;;7.67;;
7432;SDS011;32233;49.500;7.764;2023-02-01T07:08:44;14.07;;;7.70;;
7432;SDS011;32233;49.500;7.764;2023-02-01T07:11:12;21.20;;;8.17;;
7432;SDS011;32233;49.500;7.764;2023-02-01T07:13:40;21.53;;;7.60;;
7432;SDS011;32233;49.500;7.764;2023-02-01T07:16:08;14.60;;;7.30;;
7432;SDS011;32233;49.500;7.764;2023-02-01T07:18:37;14.93;;;7.07;;
7432;SDS011;32233;49.500;7.764;2023-02-01T07:21:04;14.03;;;6.80;;
7432;SDS011;32233;49.500;7.764;2023-02-01T07:23:31;13.27;;;6.00;;
7432;SDS011;32233;49.500;7.764;2023-02-01T07:25:59;12.80;;;5.80;;
7432;SDS011;32233;49.500;7.764;2023-02-01T07:28:28;14.40;;;5.83;;
7432;SDS011;32233;49.500;7.764;2023-02-01T07:33:51;10.67;;;6.53;;
7432;SDS011;32233;49.500;7.764;2023-02-01T07:36:18;15.40;;;6.67;;
7432;SDS011;32233;49.500;7.764;2023-02-01T07:38:45;14.37;;;7.20;;
7432;SDS011;32233;49.500;7.764;2023-02-01T07:41:15;17.43;;;6.93;;
7432;SDS011;32233;49.500;7.764;2023-02-01T07:43:43;15.83;;;7.07;;
7432;SDS011;32233;49.500;7.764;2023-02-01T07:46:10;19.57;;;7.77;;
7432;SDS011;32233;49.500;7.764;2023-02-01T07:48:37;16.47;;;7.20;;
7432;SDS011;32233;49.500;7.764;2023-02-01T07:51:05;25.07;;;7.97;;
7432;SDS011;32233;49.500;7.764;2023-02-01T07:53:35;18.77;;;7.10;;
7432;SDS011;32233;49.500;7.764;2023-02-01T07:56:02;17.17;;;8.07;;
7432;SDS011;32233;49.500;7.764;2023-02-01T07:58:29;18.40;;;7.77;;
7432;SDS011;32233;49.500;7.764;2023-02-01T08:00:56;21.83;;;8.00;;
7432;SDS011;32233;49.500;7.764;2023-02-01T08:03:41;16.03;;;7.27;;
7432;SDS011;32233;49.500;7.764;2023-02-01T08:06:07;19.73;;;7.73;;
7432;SDS011;32233;49.500;7.764;2023-02-01T08:08:34;22.07;;;8.40;;
7432;SDS011;32233;49.500;7.764;2023-02-01T08:11:02;21.97;;;7.83;;
7432;SDS011;32233;49.500;7.764;2023-02-01T08:13:31;24.07;;;7.77;;
7432;SDS011;32233;49.500;7.764;2023-02-01T08:15:59;20.37;;;7.27;;
7432;SDS011;32233;49.500;7.764;2023-02-01T08:18:26;24.00;;;9.33;;
7432;SDS011;32233;49.500;7.764;2023-02-01T08:20:53;18.70;;;8.50;;
7432;SDS011;32233;49.500;7.764;2023-02-01T08:23:20;18.30;;;7.83;;
7432;SDS011;32233;49.500;7.764;2023-02-01T08:25:47;19.80;;;6.87;;
7432;SDS011;32233;49.500;7.764;2023-02-01T08:28:14;16.07;;;6.70;;
7432;SDS011;32233;49.500;7.764;2023-02-01T08:30:40;21.27;;;7.30;;
7432;SDS011;32233;49.500;7.764;2023-02-01T08:33:08;20.50;;;7.13;;
7432;SDS011;32233;49.500;7.764;2023-02-01T08:35:35;15.73;;;6.00;;
7432;SDS011;32233;49.500;7.764;2023-02-01T08:38:09;13.70;;;6.13;;
7432;SDS011;32233;49.500;7.764;2023-02-01T08:40:36;14.17;;;5.63;;
7432;SDS011;32233;49.500;7.764;2023-02-01T08:43:02;14.13;;;5.23;;
7432;SDS011;32233;49.500;7.764;2023-02-01T08:45:29;11.70;;;4.47;;
7432;SDS011;32233;49.500;7.764;2023-02-01T08:47:56;11.53;;;4.20;;
7432;SDS011;32233;49.500;7.764;2023-02-01T08:50:23;9.70;;;5.00;;
7432;SDS011;32233;49.500;7.764;2023-02-01T08:52:51;10.37;;;4.73;;
7432;SDS011;32233;49.500;7.764;2023-02-01T08:55:18;13.20;;;3.90;;
7432;SDS011;32233;49.500;7.764;2023-02-01T08:57:45;21.10;;;4.17;;
7432;SDS011;32233;49.500;7.764;2023-02-01T09:00:17;11.17;;;3.60;;
7432;SDS011;32233;49.500;7.764;2023-02-01T09:02:44;10.53;;;3.93;;
7432;SDS011;32233;49.500;7.764;2023-02-01T09:05:11;12.73;;;4.60;;
7432;SDS011;32233;49.500;7.764;2023-02-01T09:07:37;16.00;;;4.27;;
7432;SDS011;32233;49.500;7.764;2023-02-01T09:10:05;13.20;;;4.50;;
7432;SDS011;32233;49.500;7.764;2023-02-01T09:12:33;17.73;;;4.37;;
7432;SDS011;32233;49.500;7.764;2023-02-01T09:15:00;13.23;;;4.10;;
7432;SDS011;32233;49.500;7.764;2023-02-01T09:17:27;15.53;;;5.13;;
7432;SDS011;32233;49.500;7.764;2023-02-01T09:19:59;18.27;;;4.10;;
7432;SDS011;32233;49.500;7.764;2023-02-01T09:22:26;14.53;;;4.33;;
7432;SDS011;32233;49.500;7.764;2023-02-01T09:24:52;15.03;;;4.60;;
7432;SDS011;32233;49.500;7.764;2023-02-01T09:27:20;16.07;;;4.90;;
7432;SDS011;32233;49.500;7.764;2023-02-01T09:29:47;17.83;;;5.93;;
7432;SDS011;32233;49.500;7.764;2023-02-01T09:32:19;17.80;;;4.40;;
7432;SDS011;32233;49.500;7.764;2023-02-01T09:34:48;17.33;;;4.57;;
7432;SDS011;32233;49.500;7.764;2023-02-01T09:37:18;13.57;;;4.90;;
7432;SDS011;32233;49.500;7.764;2023-02-01T09:39:45;19.73;;;4.83;;
7432;SDS011;32233;49.500;7.764;2023-02-01T09:47:39;19.40;;;5.13;;
7432;SDS011;32233;49.500;7.764;2023-02-01T09:50:18;13.83;;;3.90;;
7432;SDS011;32233;49.500;7.764;2023-02-01T09:52:55;13.47;;;3.97;;
7432;SDS011;32233;49.500;7.764;2023-02-01T09:55:30;17.30;;;4.23;;
7432;SDS011;32233;49.500;7.764;2023-02-01T09:58:07;14.17;;;4.07;;
7432;SDS011;32233;49.500;7.764;2023-02-01T10:00:39;15.33;;;4.17;;
7432;SDS011;32233;49.500;7.764;2023-02-01T10:03:10;17.80;;;3.87;;
7432;SDS011;32233;49.500;7.764;2023-02-01T10:05:43;17.77;;;3.80;;
7432;SDS011;32233;49.500;7.764;2023-02-01T10:11:21;13.00;;;3.93;;
7432;SDS011;32233;49.500;7.764;2023-02-01T10:16:55;16.83;;;4.40;;
7432;SDS011;32233;49.500;7.764;2023-02-01T10:22:30;14.50;;;3.57;;
7432;SDS011;32233;49.500;7.764;2023-02-01T10:25:44;12.10;;;3.30;;
7432;SDS011;32233;49.500;7.764;2023-02-01T10:28:20;11.47;;;3.50;;
7432;SDS011;32233;49.500;7.764;2023-02-01T10:30:51;19.13;;;3.67;;
7432;SDS011;32233;49.500;7.764;2023-02-01T10:36:15;17.77;;;3.57;;
7432;SDS011;32233;49.500;7.764;2023-02-01T10:38:47;12.97;;;3.53;;
7432;SDS011;32233;49.500;7.764;2023-02-01T10:41:15;14.93;;;2.93;;
7432;SDS011;32233;49.500;7.764;2023-02-01T10:43:46;16.13;;;3.17;;
7432;SDS011;32233;49.500;7.764;2023-02-01T10:46:16;15.47;;;4.20;;
7432;SDS011;32233;49.500;7.764;2023-02-01T10:48:43;16.00;;;4.33;;
7432;SDS011;32233;49.500;7.764;2023-02-01T10:51:21;15.90;;;4.00;;
7432;SDS011;32233;49.500;7.764;2023-02-01T10:53:58;15.20;;;3.93;;
7432;SDS011;32233;49.500;7.764;2023-02-01T10:56:29;20.83;;;3.80;;
7432;SDS011;32233;49.500;7.764;2023-02-01T10:59:01;19.07;;;4.00;;
7432;SDS011;32233;49.500;7.764;2023-02-01T11:04:09;14.73;;;4.37;;
7432;SDS011;32233;49.500;7.764;2023-02-01T11:06:40;15.23;;;4.80;;
7432;SDS011;32233;49.500;7.764;2023-02-01T11:14:20;14.13;;;3.33;;
7432;SDS011;32233;49.500;7.764;2023-02-01T11:19:26;13.67;;;3.30;;
7432;SDS011;32233;49.500;7.764;2023-02-01T11:21:54;11.33;;;3.13;;
7432;SDS011;32233;49.500;7.764;2023-02-01T11:24:23;13.93;;;3.03;;
7432;SDS011;32233;49.500;7.764;2023-02-01T11:26:56;19.77;;;4.13;;
7432;SDS011;32233;49.500;7.764;2023-02-01T11:29:24;16.13;;;3.30;;
7432;SDS011;32233;49.500;7.764;2023-02-01T11:31:59;11.07;;;3.00;;
7432;SDS011;32233;49.500;7.764;2023-02-01T11:34:28;12.03;;;3.20;;
7432;SDS011;32233;49.500;7.764;2023-02-01T11:37:01;14.10;;;3.53;;
7432;SDS011;32233;49.500;7.764;2023-02-01T11:39:33;12.37;;;3.50;;
7432;SDS011;32233;49.500;7.764;2023-02-01T11:42:02;18.23;;;4.23;;
7432;SDS011;32233;49.500;7.764;2023-02-01T11:44:43;17.83;;;3.27;;
7432;SDS011;32233;49.500;7.764;2023-02-01T11:47:27;14.30;;;3.37;;
7432;SDS011;32233;49.500;7.764;2023-02-01T11:49:56;14.27;;;3.53;;
7432;SDS011;32233;49.500;7.764;2023-02-01T11:52:30;9.23;;;3.20;;
7432;SDS011;32233;49.500;7.764;2023-02-01T11:55:42;11.10;;;3.43;;
7432;SDS011;32233;49.500;7.764;2023-02-01T12:03:56;17.17;;;5.33;;
7432;SDS011;32233;49.500;7.764;2023-02-01T12:06:49;10.77;;;3.90;;
7432;SDS011;32233;49.500;7.764;2023-02-01T12:09:25;18.93;;;5.27;;
7432;SDS011;32233;49.500;7.764;2023-02-01T12:12:17;13.53;;;4.37;;
7432;SDS011;32233;49.500;7.764;2023-02-01T12:39:43;16.37;;;3.60;;
7432;SDS011;32233;49.500;7.764;2023-02-01T12:45:14;13.83;;;3.37;;
7432;SDS011;32233;49.500;7.764;2023-02-01T12:47:48;14.50;;;3.30;;
7432;SDS011;32233;49.500;7.764;2023-02-01T12:50:22;11.37;;;3.00;;
7432;SDS011;32233;49.500;7.764;2023-02-01T12:52:53;11.87;;;2.67;;
7432;SDS011;32233;49.500;7.764;2023-02-01T12:55:45;12.33;;;2.63;;
7432;SDS011;32233;49.500;7.764;2023-02-01T12:58:18;10.07;;;2.50;;
7432;SDS011;32233;49.500;7.764;2023-02-01T13:01:10;11.50;;;3.10;;
7432;SDS011;32233;49.500;7.764;2023-02-01T13:07:00;8.40;;;2.73;;
7432;SDS011;32233;49.500;7.764;2023-02-01T13:09:43;13.70;;;2.80;;
7432;SDS011;32233;49.500;7.764;2023-02-01T13:12:33;9.33;;;2.87;;
7432;SDS011;32233;49.500;7.764;2023-02-01T13:15:15;9.80;;;2.50;;
7432;SDS011;32233;49.500;7.764;2023-02-01T13:17:47;10.63;;;2.83;;
7432;SDS011;32233;49.500;7.764;2023-02-01T13:23:07;11.67;;;2.83;;
7432;SDS011;32233;49.500;7.764;2023-02-01T13:28:18;8.30;;;2.60;;
7432;SDS011;32233;49.500;7.764;2023-02-01T13:30:59;12.10;;;2.60;;
7432;SDS011;32233;49.500;7.764;2023-02-01T13:34:23;14.00;;;2.80;;
7432;SDS011;32233;49.500;7.764;2023-02-01T13:37:14;16.60;;;3.57;;
7432;SDS011;32233;49.500;7.764;2023-02-01T13:42:41;10.43;;;2.77;;
7432;SDS011;32233;49.500;7.764;2023-02-01T13:45:22;11.33;;;2.53;;
7432;SDS011;32233;49.500;7.764;2023-02-01T13:47:54;11.27;;;2.67;;
7432;SDS011;32233;49.500;7.764;2023-02-01T13:50:33;10.23;;;2.67;;
7432;SDS011;32233;49.500;7.764;2023-02-01T13:53:11;10.13;;;2.60;;
7432;SDS011;32233;49.500;7.764;2023-02-01T13:55:43;10.50;;;2.30;;
7432;SDS011;32233;49.500;7.764;2023-02-01T13:58:17;15.00;;;3.27;;
7432;SDS011;32233;49.500;7.764;2023-02-01T14:00:44;14.80;;;2.50;;
7432;SDS011;32233;49.500;7.764;2023-02-01T14:03:12;15.33;;;2.63;;
7432;SDS011;32233;49.500;7.764;2023-02-01T14:08:14;10.43;;;2.70;;
7432;SDS011;32233;49.500;7.764;2023-02-01T14:10:48;9.80;;;2.47;;
7432;SDS011;32233;49.500;7.764;2023-02-01T14:13:32;13.23;;;2.57;;
7432;SDS011;32233;49.500;7.764;2023-02-01T14:26:23;11.13;;;2.53;;
7432;SDS011;32233;49.500;7.764;2023-02-01T14:44:52;12.73;;;2.40;;
7432;SDS011;32233;49.500;7.764;2023-02-01T14:49:59;6.27;;;1.67;;
7432;SDS011;32233;49.500;7.764;2023-02-01T14:52:32;9.23;;;2.00;;
7432;SDS011;32233;49.500;7.764;2023-02-01T14:55:05;9.93;;;2.63;;
7432;SDS011;32233;49.500;7.764;2023-02-01T14:57:37;8.60;;;2.07;;
7432;SDS011;32233;49.500;7.764;2023-02-01T15:00:15;10.90;;;2.23;;
7432;SDS011;32233;49.500;7.764;2023-02-01T15:02:45;11.90;;;2.30;;
7432;SDS011;32233;49.500;7.764;2023-02-01T15:08:07;10.57;;;2.10;;
7432;SDS011;32233;49.500;7.764;2023-02-01T15:10:45;15.57;;;1.97;;
7432;SDS011;32233;49.500;7.764;2023-02-01T15:13:20;9.83;;;2.10;;
7432;SDS011;32233;49.500;7.764;2023-02-01T15:18:41;10.17;;;2.40;;
7432;SDS011;32233;49.500;7.764;2023-02-01T15:21:18;14.17;;;2.73;;
7432;SDS011;32233;49.500;7.764;2023-02-01T15:24:10;11.30;;;2.40;;
7432;SDS011;32233;49.500;7.764;2023-02-01T15:26:38;10.17;;;2.40;;
7432;SDS011;32233;49.500;7.764;2023-02-01T15:29:05;11.97;;;2.30;;
7432;SDS011;32233;49.500;7.764;2023-02-01T15:31:32;13.10;;;2.27;;
7432;SDS011;32233;49.500;7.764;2023-02-01T15:34:04;13.67;;;2.80;;
7432;SDS011;32233;49.500;7.764;2023-02-01T15:36:30;10.67;;;2.40;;
7432;SDS011;32233;49.500;7.764;2023-02-01T15:41:54;9.27;;;2.53;;
7432;SDS011;32233;49.500;7.764;2023-02-01T15:44:30;13.17;;;2.60;;
7432;SDS011;32233;49.500;7.764;2023-02-01T15:46:59;16.30;;;2.80;;
7432;SDS011;32233;49.500;7.764;2023-02-01T15:49:37;14.17;;;2.93;;
7432;SDS011;32233;49.500;7.764;2023-02-01T15:52:12;13.80;;;2.57;;
7432;SDS011;32233;49.500;7.764;2023-02-01T15:54:48;9.83;;;2.80;;
7432;SDS011;32233;49.500;7.764;2023-02-01T15:57:19;11.33;;;2.97;;
7432;SDS011;32233;49.500;7.764;2023-02-01T16:00:06;12.57;;;2.97;;
7432;SDS011;32233;49.500;7.764;2023-02-01T16:02:50;13.10;;;2.97;;
7432;SDS011;32233;49.500;7.764;2023-02-01T16:05:25;14.37;;;3.17;;
7432;SDS011;32233;49.500;7.764;2023-02-01T16:07:55;17.90;;;3.00;;
7432;SDS011;32233;49.500;7.764;2023-02-01T16:10:30;14.87;;;3.17;;
7432;SDS011;32233;49.500;7.764;2023-02-01T16:12:57;12.30;;;3.40;;
7432;SDS011;32233;49.500;7.764;2023-02-01T16:15:27;13.30;;;2.37;;
7432;SDS011;32233;49.500;7.764;2023-02-01T16:17:55;13.17;;;3.33;;
7432;SDS011;32233;49.500;7.764;2023-02-01T16:20:22;12.87;;;2.80;;
7432;SDS011;32233;49.500;7.764;2023-02-01T16:22:48;15.20;;;2.97;;
7432;SDS011;32233;49.500;7.764;2023-02-01T16:25:15;19.33;;;3.40;;
7432;SDS011;32233;49.500;7.764;2023-02-01T16:27:42;12.70;;;2.63;;
7432;SDS011;32233;49.500;7.764;2023-02-01T16:30:08;13.73;;;2.80;;
7432;SDS011;32233;49.500;7.764;2023-02-01T16:32:36;11.80;;;2.60;;
7432;SDS011;32233;49.500;7.764;2023-02-01T16:35:05;10.03;;;2.73;;
7432;SDS011;32233;49.500;7.764;2023-02-01T16:37:39;12.47;;;2.93;;
7432;SDS011;32233;49.500;7.764;2023-02-01T16:40:05;15.30;;;2.97;;
7432;SDS011;32233;49.500;7.764;2023-02-01T16:42:35;15.63;;;2.93;;
7432;SDS011;32233;49.500;7.764;2023-02-01T16:45:03;10.30;;;2.87;;
7432;SDS011;32233;49.500;7.764;2023-02-01T16:47:30;12.10;;;3.03;;
7432;SDS011;32233;49.500;7.764;2023-02-01T16:49:57;12.37;;;2.73;;
7432;SDS011;32233;49.500;7.764;2023-02-01T16:52:24;12.00;;;3.00;;
7432;SDS011;32233;49.500;7.764;2023-02-01T16:54:52;16.03;;;3.03;;
7432;SDS011;32233;49.500;7.764;2023-02-01T16:57:19;17.10;;;3.07;;
7432;SDS011;32233;49.500;7.764;2023-02-01T16:59:49;10.57;;;2.43;;
7432;SDS011;32233;49.500;7.764;2023-02-01T17:02:18;9.33;;;3.10;;
7432;SDS011;32233;49.500;7.764;2023-02-01T17:04:46;8.40;;;2.70;;
7432;SDS011;32233;49.500;7.764;2023-02-01T17:07:18;12.20;;;2.50;;
7432;SDS011;32233;49.500;7.764;2023-02-01T17:09:45;14.70;;;3.30;;
7432;SDS011;32233;49.500;7.764;2023-02-01T17:12:23;11.73;;;3.00;;
7432;SDS011;32233;49.500;7.764;2023-02-01T17:14:51;14.23;;;3.20;;
7432;SDS011;32233;49.500;7.764;2023-02-01T17:17:21;17.47;;;4.70;;
7432;SDS011;32233;49.500;7.764;2023-02-01T17:20:04;11.27;;;3.07;;
7432;SDS011;32233;49.500;7.764;2023-02-01T17:22:32;15.93;;;2.50;;
7432;SDS011;32233;49.500;7.764;2023-02-01T17:24:59;9.43;;;2.50;;
7432;SDS011;32233;49.500;7.764;2023-02-01T17:27:25;12.17;;;4.83;;